sensor_id;sensor_type;location;lat;lon;timestamp;P1;durP1;ratioP1;P2;durP2;ratioP2
84860;SDS011;75116;42.644;23.274;2024-03-22T00:01:41;6.10;;;3.08;;
84860;SDS011;75116;42.644;23.274;2024-03-22T00:04:07;5.80;;;2.45;;
84860;SDS011;75116;42.644;23.274;2024-03-22T00:06:32;5.93;;;2.88;;
84860;SDS011;75116;42.644;23.274;2024-03-22T00:08:58;3.90;;;2.35;;
84860;SDS011;75116;42.644;23.274;2024-03-22T00:11:23;4.60;;;2.33;;
84860;SDS011;75116;42.644;23.274;2024-03-22T00:13:49;7.50;;;2.80;;
84860;SDS011;75116;42.644;23.274;2024-03-22T00:16:14;4.05;;;2.75;;
84860;SDS011;75116;42.644;23.274;2024-03-22T00:18:40;7.75;;;3.95;;
84860;SDS011;75116;42.644;23.274;2024-03-22T00:21:05;8.30;;;3.88;;
84860;SDS011;75116;42.644;23.274;2024-03-22T00:23:31;4.72;;;2.60;;
84860;SDS011;75116;42.644;23.274;2024-03-22T00:25:56;11.68;;;3.83;;
84860;SDS011;75116;42.644;23.274;2024-03-22T00:28:22;6.55;;;3.17;;
84860;SDS011;75116;42.644;23.274;2024-03-22T00:30:47;4.40;;;2.65;;
84860;SDS011;75116;42.644;23.274;2024-03-22T00:33:13;4.72;;;2.67;;
84860;SDS011;75116;42.644;23.274;2024-03-22T00:35:38;8.55;;;3.40;;
84860;SDS011;75116;42.644;23.274;2024-03-22T00:38:04;7.63;;;3.22;;
84860;SDS011;75116;42.644;23.274;2024-03-22T00:40:30;7.88;;;3.55;;
84860;SDS011;75116;42.644;23.274;2024-03-22T00:42:55;9.25;;;2.80;;
84860;SDS011;75116;42.644;23.274;2024-03-22T00:45:21;5.47;;;2.83;;
84860;SDS011;75116;42.644;23.274;2024-03-22T00:47:46;9.65;;;4.03;;
84860;SDS011;75116;42.644;23.274;2024-03-22T00:50:12;11.48;;;5.75;;
84860;SDS011;75116;42.644;23.274;2024-03-22T00:52:37;14.25;;;6.30;;
84860;SDS011;75116;42.644;23.274;2024-03-22T00:55:04;11.82;;;4.40;;
84860;SDS011;75116;42.644;23.274;2024-03-22T00:57:30;9.07;;;4.63;;
84860;SDS011;75116;42.644;23.274;2024-03-22T00:59:55;9.50;;;4.90;;
84860;SDS011;75116;42.644;23.274;2024-03-22T01:02:21;9.75;;;5.50;;
84860;SDS011;75116;42.644;23.274;2024-03-22T01:04:47;8.95;;;5.00;;
84860;SDS011;75116;42.644;23.274;2024-03-22T01:07:13;7.75;;;3.92;;
84860;SDS011;75116;42.644;23.274;2024-03-22T01:09:39;8.48;;;4.50;;
84860;SDS011;75116;42.644;23.274;2024-03-22T01:12:04;7.53;;;3.95;;
84860;SDS011;75116;42.644;23.274;2024-03-22T01:14:30;6.25;;;3.47;;
84860;SDS011;75116;42.644;23.274;2024-03-22T01:16:56;6.00;;;3.03;;
84860;SDS011;75116;42.644;23.274;2024-03-22T01:19:22;7.75;;;3.70;;
84860;SDS011;75116;42.644;23.274;2024-03-22T01:21:48;6.13;;;3.55;;
84860;SDS011;75116;42.644;23.274;2024-03-22T01:24:14;6.05;;;3.35;;
84860;SDS011;75116;42.644;23.274;2024-03-22T01:26:39;8.20;;;3.47;;
84860;SDS011;75116;42.644;23.274;2024-03-22T01:29:05;5.07;;;2.92;;
84860;SDS011;75116;42.644;23.274;2024-03-22T01:31:30;5.82;;;3.00;;
84860;SDS011;75116;42.644;23.274;2024-03-22T01:33:56;6.05;;;2.67;;
84860;SDS011;75116;42.644;23.274;2024-03-22T01:36:21;8.02;;;3.15;;
84860;SDS011;75116;42.644;23.274;2024-03-22T01:38:47;8.98;;;4.05;;
84860;SDS011;75116;42.644;23.274;2024-03-22T01:41:12;6.40;;;3.40;;
84860;SDS011;75116;42.644;23.274;2024-03-22T01:43:38;4.05;;;2.78;;
84860;SDS011;75116;42.644;23.274;2024-03-22T01:46:04;5.13;;;3.65;;
84860;SDS011;75116;42.644;23.274;2024-03-22T01:48:30;5.80;;;3.55;;
84860;SDS011;75116;42.644;23.274;2024-03-22T01:50:56;4.25;;;2.83;;
84860;SDS011;75116;42.644;23.274;2024-03-22T01:53:22;8.07;;;4.75;;
84860;SDS011;75116;42.644;23.274;2024-03-22T01:55:48;7.00;;;3.42;;
84860;SDS011;75116;42.644;23.274;2024-03-22T01:58:14;8.07;;;3.47;;
84860;SDS011;75116;42.644;23.274;2024-03-22T02:00:40;6.95;;;3.05;;
84860;SDS011;75116;42.644;23.274;2024-03-22T02:03:05;5.53;;;3.00;;
84860;SDS011;75116;42.644;23.274;2024-03-22T02:05:31;5.57;;;3.25;;
84860;SDS011;75116;42.644;23.274;2024-03-22T02:07:57;5.88;;;2.90;;
84860;SDS011;75116;42.644;23.274;2024-03-22T02:10:22;10.45;;;3.80;;
84860;SDS011;75116;42.644;23.274;2024-03-22T02:12:48;7.93;;;3.83;;
84860;SDS011;75116;42.644;23.274;2024-03-22T02:15:13;9.15;;;4.10;;
84860;SDS011;75116;42.644;23.274;2024-03-22T02:17:39;4.97;;;3.22;;
84860;SDS011;75116;42.644;23.274;2024-03-22T02:20:04;5.78;;;3.72;;
84860;SDS011;75116;42.644;23.274;2024-03-22T02:22:31;6.07;;;3.53;;
84860;SDS011;75116;42.644;23.274;2024-03-22T02:24:56;7.00;;;3.38;;
84860;SDS011;75116;42.644;23.274;2024-03-22T02:27:22;7.60;;;3.45;;
84860;SDS011;75116;42.644;23.274;2024-03-22T02:29:48;10.65;;;4.53;;
84860;SDS011;75116;42.644;23.274;2024-03-22T02:32:13;5.90;;;3.45;;
84860;SDS011;75116;42.644;23.274;2024-03-22T02:34:39;7.45;;;3.78;;
84860;SDS011;75116;42.644;23.274;2024-03-22T02:37:04;6.63;;;3.40;;
84860;SDS011;75116;42.644;23.274;2024-03-22T02:39:30;6.72;;;3.55;;
84860;SDS011;75116;42.644;23.274;2024-03-22T02:41:55;4.85;;;2.60;;
84860;SDS011;75116;42.644;23.274;2024-03-22T02:44:21;5.95;;;2.85;;
84860;SDS011;75116;42.644;23.274;2024-03-22T02:46:46;6.88;;;3.08;;
84860;SDS011;75116;42.644;23.274;2024-03-22T02:49:12;5.30;;;3.10;;
84860;SDS011;75116;42.644;23.274;2024-03-22T02:51:38;8.95;;;3.75;;
84860;SDS011;75116;42.644;23.274;2024-03-22T02:54:04;9.98;;;4.30;;
84860;SDS011;75116;42.644;23.274;2024-03-22T02:56:29;7.10;;;4.28;;
84860;SDS011;75116;42.644;23.274;2024-03-22T02:58:55;9.65;;;4.03;;
84860;SDS011;75116;42.644;23.274;2024-03-22T03:01:20;8.98;;;4.15;;
84860;SDS011;75116;42.644;23.274;2024-03-22T03:03:46;5.65;;;3.20;;
84860;SDS011;75116;42.644;23.274;2024-03-22T03:06:11;5.88;;;3.17;;
84860;SDS011;75116;42.644;23.274;2024-03-22T03:08:41;6.65;;;3.40;;
84860;SDS011;75116;42.644;23.274;2024-03-22T03:11:07;7.28;;;3.00;;
84860;SDS011;75116;42.644;23.274;2024-03-22T03:13:32;6.30;;;3.17;;
84860;SDS011;75116;42.644;23.274;2024-03-22T03:15:58;5.72;;;3.20;;
84860;SDS011;75116;42.644;23.274;2024-03-22T03:18:23;6.85;;;3.58;;
84860;SDS011;75116;42.644;23.274;2024-03-22T03:20:49;9.23;;;3.67;;
84860;SDS011;75116;42.644;23.274;2024-03-22T03:23:15;6.20;;;3.03;;
84860;SDS011;75116;42.644;23.274;2024-03-22T03:25:40;6.22;;;3.67;;
84860;SDS011;75116;42.644;23.274;2024-03-22T03:28:06;5.65;;;3.05;;
84860;SDS011;75116;42.644;23.274;2024-03-22T03:30:32;6.53;;;3.40;;
84860;SDS011;75116;42.644;23.274;2024-03-22T03:32:59;9.50;;;4.43;;
84860;SDS011;75116;42.644;23.274;2024-03-22T03:35:25;7.72;;;3.35;;
84860;SDS011;75116;42.644;23.274;2024-03-22T03:37:51;5.72;;;3.28;;
84860;SDS011;75116;42.644;23.274;2024-03-22T03:40:16;6.43;;;3.78;;
84860;SDS011;75116;42.644;23.274;2024-03-22T03:42:42;8.95;;;3.40;;
84860;SDS011;75116;42.644;23.274;2024-03-22T03:45:07;5.20;;;2.70;;
84860;SDS011;75116;42.644;23.274;2024-03-22T03:47:33;6.15;;;3.65;;
84860;SDS011;75116;42.644;23.274;2024-03-22T03:49:59;6.72;;;3.53;;
84860;SDS011;75116;42.644;23.274;2024-03-22T03:52:24;6.55;;;3.50;;
84860;SDS011;75116;42.644;23.274;2024-03-22T03:54:50;7.60;;;3.83;;
84860;SDS011;75116;42.644;23.274;2024-03-22T03:57:15;8.30;;;3.58;;
84860;SDS011;75116;42.644;23.274;2024-03-22T03:59:41;6.60;;;3.00;;
84860;SDS011;75116;42.644;23.274;2024-03-22T04:02:07;8.57;;;3.58;;
84860;SDS011;75116;42.644;23.274;2024-03-22T04:04:32;5.18;;;2.72;;
84860;SDS011;75116;42.644;23.274;2024-03-22T04:06:58;5.00;;;2.92;;
84860;SDS011;75116;42.644;23.274;2024-03-22T04:09:23;5.95;;;2.63;;
84860;SDS011;75116;42.644;23.274;2024-03-22T04:11:49;5.75;;;2.60;;
84860;SDS011;75116;42.644;23.274;2024-03-22T04:14:14;5.75;;;2.60;;
84860;SDS011;75116;42.644;23.274;2024-03-22T04:16:41;5.05;;;2.90;;
84860;SDS011;75116;42.644;23.274;2024-03-22T04:19:07;4.90;;;2.78;;
84860;SDS011;75116;42.644;23.274;2024-03-22T04:21:32;4.78;;;2.78;;
84860;SDS011;75116;42.644;23.274;2024-03-22T04:23:58;4.72;;;2.88;;
84860;SDS011;75116;42.644;23.274;2024-03-22T04:26:23;4.72;;;2.60;;
84860;SDS011;75116;42.644;23.274;2024-03-22T04:28:49;7.80;;;3.17;;
84860;SDS011;75116;42.644;23.274;2024-03-22T04:31:14;6.00;;;2.85;;
84860;SDS011;75116;42.644;23.274;2024-03-22T04:33:40;3.83;;;2.40;;
84860;SDS011;75116;42.644;23.274;2024-03-22T04:36:06;7.18;;;2.85;;
84860;SDS011;75116;42.644;23.274;2024-03-22T04:38:34;5.22;;;2.85;;
84860;SDS011;75116;42.644;23.274;2024-03-22T04:41:00;10.38;;;4.30;;
84860;SDS011;75116;42.644;23.274;2024-03-22T04:43:26;7.50;;;3.72;;
84860;SDS011;75116;42.644;23.274;2024-03-22T04:45:52;13.23;;;5.00;;
84860;SDS011;75116;42.644;23.274;2024-03-22T04:48:19;6.43;;;3.72;;
84860;SDS011;75116;42.644;23.274;2024-03-22T04:50:46;6.03;;;3.55;;
84860;SDS011;75116;42.644;23.274;2024-03-22T04:53:16;6.80;;;3.92;;
84860;SDS011;75116;42.644;23.274;2024-03-22T04:55:46;10.52;;;4.20;;
84860;SDS011;75116;42.644;23.274;2024-03-22T04:58:19;6.25;;;3.45;;
84860;SDS011;75116;42.644;23.274;2024-03-22T05:00:46;9.10;;;4.18;;
84860;SDS011;75116;42.644;23.274;2024-03-22T05:03:12;8.70;;;4.35;;
84860;SDS011;75116;42.644;23.274;2024-03-22T05:05:38;9.57;;;3.30;;
84860;SDS011;75116;42.644;23.274;2024-03-22T05:08:04;7.55;;;2.92;;
84860;SDS011;75116;42.644;23.274;2024-03-22T05:10:30;6.38;;;3.25;;
84860;SDS011;75116;42.644;23.274;2024-03-22T05:12:56;6.97;;;3.50;;
84860;SDS011;75116;42.644;23.274;2024-03-22T05:15:22;6.15;;;3.40;;
84860;SDS011;75116;42.644;23.274;2024-03-22T05:17:48;9.30;;;3.63;;
84860;SDS011;75116;42.644;23.274;2024-03-22T05:20:14;10.50;;;3.50;;
84860;SDS011;75116;42.644;23.274;2024-03-22T05:22:41;10.43;;;4.80;;
84860;SDS011;75116;42.644;23.274;2024-03-22T05:25:07;8.95;;;4.93;;
84860;SDS011;75116;42.644;23.274;2024-03-22T05:27:33;12.68;;;4.68;;
84860;SDS011;75116;42.644;23.274;2024-03-22T05:29:59;9.98;;;4.57;;
84860;SDS011;75116;42.644;23.274;2024-03-22T05:32:25;9.15;;;5.25;;
84860;SDS011;75116;42.644;23.274;2024-03-22T05:34:51;7.82;;;4.18;;
84860;SDS011;75116;42.644;23.274;2024-03-22T05:37:17;7.70;;;4.25;;
84860;SDS011;75116;42.644;23.274;2024-03-22T05:39:42;8.95;;;4.72;;
84860;SDS011;75116;42.644;23.274;2024-03-22T05:42:08;9.23;;;4.75;;
84860;SDS011;75116;42.644;23.274;2024-03-22T05:44:33;8.73;;;4.63;;
84860;SDS011;75116;42.644;23.274;2024-03-22T05:46:59;13.07;;;5.13;;
84860;SDS011;75116;42.644;23.274;2024-03-22T05:49:25;15.02;;;5.75;;
84860;SDS011;75116;42.644;23.274;2024-03-22T05:51:50;14.43;;;6.45;;
84860;SDS011;75116;42.644;23.274;2024-03-22T05:54:16;19.13;;;7.50;;
84860;SDS011;75116;42.644;23.274;2024-03-22T05:56:41;16.58;;;8.30;;
84860;SDS011;75116;42.644;23.274;2024-03-22T05:59:07;19.38;;;7.22;;
84860;SDS011;75116;42.644;23.274;2024-03-22T06:01:32;17.23;;;8.20;;
84860;SDS011;75116;42.644;23.274;2024-03-22T06:03:58;16.77;;;7.15;;
84860;SDS011;75116;42.644;23.274;2024-03-22T06:06:23;15.95;;;7.53;;
84860;SDS011;75116;42.644;23.274;2024-03-22T06:08:52;18.38;;;8.50;;
84860;SDS011;75116;42.644;23.274;2024-03-22T06:11:19;11.88;;;6.75;;
84860;SDS011;75116;42.644;23.274;2024-03-22T06:13:46;12.98;;;6.45;;
84860;SDS011;75116;42.644;23.274;2024-03-22T06:16:11;18.13;;;7.70;;
84860;SDS011;75116;42.644;23.274;2024-03-22T06:18:37;19.23;;;7.68;;
84860;SDS011;75116;42.644;23.274;2024-03-22T06:21:03;14.07;;;6.93;;
84860;SDS011;75116;42.644;23.274;2024-03-22T06:23:28;20.02;;;6.80;;
84860;SDS011;75116;42.644;23.274;2024-03-22T06:25:54;14.00;;;6.05;;
84860;SDS011;75116;42.644;23.274;2024-03-22T06:28:21;13.23;;;6.22;;
84860;SDS011;75116;42.644;23.274;2024-03-22T06:30:47;20.92;;;6.18;;
84860;SDS011;75116;42.644;23.274;2024-03-22T06:33:12;15.05;;;5.55;;
84860;SDS011;75116;42.644;23.274;2024-03-22T06:35:38;10.13;;;5.18;;
84860;SDS011;75116;42.644;23.274;2024-03-22T06:38:04;16.88;;;6.20;;
84860;SDS011;75116;42.644;23.274;2024-03-22T06:40:29;12.40;;;5.57;;
84860;SDS011;75116;42.644;23.274;2024-03-22T06:42:55;12.63;;;5.10;;
84860;SDS011;75116;42.644;23.274;2024-03-22T06:45:21;11.27;;;6.05;;
84860;SDS011;75116;42.644;23.274;2024-03-22T06:47:47;9.65;;;5.80;;
84860;SDS011;75116;42.644;23.274;2024-03-22T06:50:12;8.75;;;4.43;;
84860;SDS011;75116;42.644;23.274;2024-03-22T06:52:38;14.75;;;6.03;;
84860;SDS011;75116;42.644;23.274;2024-03-22T06:55:04;12.10;;;5.07;;
84860;SDS011;75116;42.644;23.274;2024-03-22T06:57:30;11.93;;;5.35;;
84860;SDS011;75116;42.644;23.274;2024-03-22T06:59:55;9.25;;;4.22;;
84860;SDS011;75116;42.644;23.274;2024-03-22T07:02:21;10.63;;;5.60;;
84860;SDS011;75116;42.644;23.274;2024-03-22T07:04:47;10.43;;;4.88;;
84860;SDS011;75116;42.644;23.274;2024-03-22T07:07:12;9.00;;;4.70;;
84860;SDS011;75116;42.644;23.274;2024-03-22T07:09:38;9.40;;;4.03;;
84860;SDS011;75116;42.644;23.274;2024-03-22T07:12:04;6.65;;;3.60;;
84860;SDS011;75116;42.644;23.274;2024-03-22T07:14:30;10.05;;;5.03;;
84860;SDS011;75116;42.644;23.274;2024-03-22T07:16:55;7.68;;;3.15;;
84860;SDS011;75116;42.644;23.274;2024-03-22T07:19:21;8.30;;;3.92;;
84860;SDS011;75116;42.644;23.274;2024-03-22T07:21:47;5.43;;;2.92;;
84860;SDS011;75116;42.644;23.274;2024-03-22T07:24:12;7.90;;;3.85;;
84860;SDS011;75116;42.644;23.274;2024-03-22T07:26:38;10.57;;;5.15;;
84860;SDS011;75116;42.644;23.274;2024-03-22T07:29:04;7.78;;;4.28;;
84860;SDS011;75116;42.644;23.274;2024-03-22T07:31:29;8.13;;;3.00;;
84860;SDS011;75116;42.644;23.274;2024-03-22T07:33:55;17.73;;;4.20;;
84860;SDS011;75116;42.644;23.274;2024-03-22T07:36:21;12.43;;;4.25;;
84860;SDS011;75116;42.644;23.274;2024-03-22T07:38:46;4.20;;;3.22;;
84860;SDS011;75116;42.644;23.274;2024-03-22T07:41:14;7.80;;;3.35;;
84860;SDS011;75116;42.644;23.274;2024-03-22T07:43:39;4.57;;;3.22;;
84860;SDS011;75116;42.644;23.274;2024-03-22T07:46:05;6.43;;;2.60;;
84860;SDS011;75116;42.644;23.274;2024-03-22T07:48:30;5.22;;;3.13;;
84860;SDS011;75116;42.644;23.274;2024-03-22T07:50:59;6.85;;;2.63;;
84860;SDS011;75116;42.644;23.274;2024-03-22T07:53:26;6.63;;;3.50;;
84860;SDS011;75116;42.644;23.274;2024-03-22T07:55:51;4.63;;;2.47;;
84860;SDS011;75116;42.644;23.274;2024-03-22T07:58:17;3.97;;;2.22;;
84860;SDS011;75116;42.644;23.274;2024-03-22T08:00:42;6.55;;;3.15;;
84860;SDS011;75116;42.644;23.274;2024-03-22T08:03:08;8.98;;;4.53;;
84860;SDS011;75116;42.644;23.274;2024-03-22T08:05:40;2.55;;;1.63;;
84860;SDS011;75116;42.644;23.274;2024-03-22T08:08:06;7.75;;;3.35;;
84860;SDS011;75116;42.644;23.274;2024-03-22T08:10:32;4.72;;;2.70;;
84860;SDS011;75116;42.644;23.274;2024-03-22T08:12:57;6.55;;;3.40;;
84860;SDS011;75116;42.644;23.274;2024-03-22T08:15:23;7.55;;;3.55;;
84860;SDS011;75116;42.644;23.274;2024-03-22T08:17:49;6.65;;;4.72;;
84860;SDS011;75116;42.644;23.274;2024-03-22T08:20:14;6.00;;;3.00;;
84860;SDS011;75116;42.644;23.274;2024-03-22T08:22:40;5.22;;;2.92;;
84860;SDS011;75116;42.644;23.274;2024-03-22T08:25:05;8.88;;;3.45;;
84860;SDS011;75116;42.644;23.274;2024-03-22T08:27:32;5.07;;;3.05;;
84860;SDS011;75116;42.644;23.274;2024-03-22T08:29:59;5.82;;;2.80;;
84860;SDS011;75116;42.644;23.274;2024-03-22T08:32:25;4.65;;;2.05;;
84860;SDS011;75116;42.644;23.274;2024-03-22T08:34:51;7.90;;;4.70;;
84860;SDS011;75116;42.644;23.274;2024-03-22T08:37:16;7.60;;;3.50;;
84860;SDS011;75116;42.644;23.274;2024-03-22T08:39:42;7.10;;;2.97;;
84860;SDS011;75116;42.644;23.274;2024-03-22T08:42:08;3.65;;;1.50;;
84860;SDS011;75116;42.644;23.274;2024-03-22T08:44:34;3.55;;;2.22;;
84860;SDS011;75116;42.644;23.274;2024-03-22T08:47:00;8.50;;;3.03;;
84860;SDS011;75116;42.644;23.274;2024-03-22T08:49:25;5.18;;;2.20;;
84860;SDS011;75116;42.644;23.274;2024-03-22T08:51:51;4.20;;;2.65;;
84860;SDS011;75116;42.644;23.274;2024-03-22T08:54:16;4.50;;;2.72;;
84860;SDS011;75116;42.644;23.274;2024-03-22T08:56:42;4.93;;;2.83;;
84860;SDS011;75116;42.644;23.274;2024-03-22T08:59:07;7.65;;;2.88;;
84860;SDS011;75116;42.644;23.274;2024-03-22T09:01:33;6.97;;;3.55;;
84860;SDS011;75116;42.644;23.274;2024-03-22T09:03:58;6.20;;;3.25;;
84860;SDS011;75116;42.644;23.274;2024-03-22T09:06:24;5.55;;;2.90;;
84860;SDS011;75116;42.644;23.274;2024-03-22T09:08:50;3.60;;;2.38;;
84860;SDS011;75116;42.644;23.274;2024-03-22T09:11:15;2.33;;;1.35;;
84860;SDS011;75116;42.644;23.274;2024-03-22T09:13:41;3.10;;;1.70;;
84860;SDS011;75116;42.644;23.274;2024-03-22T09:16:06;2.33;;;1.65;;
84860;SDS011;75116;42.644;23.274;2024-03-22T09:18:32;6.50;;;2.08;;
84860;SDS011;75116;42.644;23.274;2024-03-22T09:20:58;4.13;;;2.40;;
84860;SDS011;75116;42.644;23.274;2024-03-22T09:23:24;3.92;;;2.50;;
84860;SDS011;75116;42.644;23.274;2024-03-22T09:25:49;4.82;;;2.40;;
84860;SDS011;75116;42.644;23.274;2024-03-22T09:28:15;3.28;;;1.67;;
84860;SDS011;75116;42.644;23.274;2024-03-22T09:30:40;5.97;;;2.30;;
84860;SDS011;75116;42.644;23.274;2024-03-22T09:33:08;3.42;;;2.38;;
84860;SDS011;75116;42.644;23.274;2024-03-22T09:35:36;6.22;;;3.00;;
84860;SDS011;75116;42.644;23.274;2024-03-22T09:38:02;2.95;;;1.88;;
84860;SDS011;75116;42.644;23.274;2024-03-22T09:40:30;3.28;;;1.88;;
84860;SDS011;75116;42.644;23.274;2024-03-22T09:42:58;4.40;;;2.67;;
84860;SDS011;75116;42.644;23.274;2024-03-22T09:45:28;4.10;;;2.83;;
84860;SDS011;75116;42.644;23.274;2024-03-22T09:47:54;3.90;;;1.35;;
84860;SDS011;75116;42.644;23.274;2024-03-22T09:50:21;2.20;;;1.48;;
84860;SDS011;75116;42.644;23.274;2024-03-22T09:52:46;4.40;;;1.90;;
84860;SDS011;75116;42.644;23.274;2024-03-22T09:55:13;7.78;;;3.15;;
84860;SDS011;75116;42.644;23.274;2024-03-22T09:57:39;5.30;;;2.22;;
84860;SDS011;75116;42.644;23.274;2024-03-22T10:00:06;3.72;;;1.80;;
84860;SDS011;75116;42.644;23.274;2024-03-22T10:02:33;2.90;;;1.65;;
84860;SDS011;75116;42.644;23.274;2024-03-22T10:04:59;5.65;;;2.50;;
84860;SDS011;75116;42.644;23.274;2024-03-22T10:07:27;4.90;;;1.95;;
84860;SDS011;75116;42.644;23.274;2024-03-22T10:09:53;4.40;;;1.85;;
84860;SDS011;75116;42.644;23.274;2024-03-22T10:12:18;3.30;;;1.65;;
84860;SDS011;75116;42.644;23.274;2024-03-22T10:14:45;1.95;;;1.27;;
84860;SDS011;75116;42.644;23.274;2024-03-22T10:17:11;4.13;;;2.47;;
84860;SDS011;75116;42.644;23.274;2024-03-22T10:19:36;4.97;;;3.20;;
84860;SDS011;75116;42.644;23.274;2024-03-22T10:22:02;2.55;;;1.52;;
84860;SDS011;75116;42.644;23.274;2024-03-22T10:24:29;7.38;;;2.72;;
84860;SDS011;75116;42.644;23.274;2024-03-22T10:26:55;2.90;;;1.98;;
84860;SDS011;75116;42.644;23.274;2024-03-22T10:29:21;2.95;;;1.90;;
84860;SDS011;75116;42.644;23.274;2024-03-22T10:31:47;4.00;;;2.30;;
84860;SDS011;75116;42.644;23.274;2024-03-22T10:34:15;4.80;;;2.33;;
84860;SDS011;75116;42.644;23.274;2024-03-22T10:36:42;5.55;;;2.00;;
84860;SDS011;75116;42.644;23.274;2024-03-22T10:39:09;1.88;;;1.20;;
84860;SDS011;75116;42.644;23.274;2024-03-22T10:41:38;5.00;;;2.28;;
84860;SDS011;75116;42.644;23.274;2024-03-22T10:44:03;5.05;;;2.20;;
84860;SDS011;75116;42.644;23.274;2024-03-22T10:46:30;6.15;;;1.48;;
84860;SDS011;75116;42.644;23.274;2024-03-22T10:48:56;3.00;;;2.08;;
84860;SDS011;75116;42.644;23.274;2024-03-22T10:51:22;1.98;;;1.50;;
84860;SDS011;75116;42.644;23.274;2024-03-22T10:53:49;4.53;;;3.63;;
84860;SDS011;75116;42.644;23.274;2024-03-22T10:56:17;4.18;;;2.55;;
84860;SDS011;75116;42.644;23.274;2024-03-22T10:58:44;3.80;;;2.25;;
84860;SDS011;75116;42.644;23.274;2024-03-22T11:01:23;2.25;;;1.63;;
84860;SDS011;75116;42.644;23.274;2024-03-22T11:03:50;1.75;;;1.15;;
84860;SDS011;75116;42.644;23.274;2024-03-22T11:06:19;4.03;;;2.50;;
84860;SDS011;75116;42.644;23.274;2024-03-22T11:08:51;3.63;;;2.00;;
84860;SDS011;75116;42.644;23.274;2024-03-22T11:11:17;2.58;;;1.60;;
84860;SDS011;75116;42.644;23.274;2024-03-22T11:13:47;2.70;;;2.00;;
84860;SDS011;75116;42.644;23.274;2024-03-22T11:16:15;2.38;;;1.70;;
84860;SDS011;75116;42.644;23.274;2024-03-22T11:18:42;4.15;;;1.80;;
84860;SDS011;75116;42.644;23.274;2024-03-22T11:21:07;3.97;;;2.15;;
84860;SDS011;75116;42.644;23.274;2024-03-22T11:23:34;4.53;;;2.05;;
84860;SDS011;75116;42.644;23.274;2024-03-22T11:26:02;3.53;;;2.22;;
84860;SDS011;75116;42.644;23.274;2024-03-22T11:28:28;3.10;;;1.80;;
84860;SDS011;75116;42.644;23.274;2024-03-22T11:30:54;3.05;;;2.10;;
84860;SDS011;75116;42.644;23.274;2024-03-22T11:33:20;3.50;;;2.38;;
84860;SDS011;75116;42.644;23.274;2024-03-22T11:35:46;5.80;;;1.83;;
84860;SDS011;75116;42.644;23.274;2024-03-22T11:38:11;1.52;;;1.40;;
84860;SDS011;75116;42.644;23.274;2024-03-22T11:40:37;3.92;;;2.08;;
84860;SDS011;75116;42.644;23.274;2024-03-22T11:43:03;4.97;;;2.63;;
84860;SDS011;75116;42.644;23.274;2024-03-22T11:45:29;3.90;;;2.55;;
84860;SDS011;75116;42.644;23.274;2024-03-22T11:48:01;6.95;;;3.30;;
84860;SDS011;75116;42.644;23.274;2024-03-22T11:50:28;4.82;;;2.72;;
84860;SDS011;75116;42.644;23.274;2024-03-22T11:52:53;4.93;;;1.95;;
84860;SDS011;75116;42.644;23.274;2024-03-22T11:55:19;4.57;;;2.15;;
84860;SDS011;75116;42.644;23.274;2024-03-22T11:57:50;3.40;;;2.05;;
84860;SDS011;75116;42.644;23.274;2024-03-22T12:00:18;2.97;;;2.25;;
84860;SDS011;75116;42.644;23.274;2024-03-22T12:02:44;5.30;;;1.58;;
84860;SDS011;75116;42.644;23.274;2024-03-22T12:05:10;4.18;;;1.52;;
84860;SDS011;75116;42.644;23.274;2024-03-22T12:07:36;3.92;;;2.22;;
84860;SDS011;75116;42.644;23.274;2024-03-22T12:10:02;4.63;;;2.10;;
84860;SDS011;75116;42.644;23.274;2024-03-22T12:12:28;3.03;;;2.03;;
84860;SDS011;75116;42.644;23.274;2024-03-22T12:14:55;4.88;;;2.45;;
84860;SDS011;75116;42.644;23.274;2024-03-22T12:17:20;4.25;;;1.60;;
84860;SDS011;75116;42.644;23.274;2024-03-22T12:19:46;5.65;;;2.13;;
84860;SDS011;75116;42.644;23.274;2024-03-22T12:22:12;4.35;;;2.92;;
84860;SDS011;75116;42.644;23.274;2024-03-22T12:24:37;4.25;;;2.30;;
84860;SDS011;75116;42.644;23.274;2024-03-22T12:27:03;2.85;;;1.92;;
84860;SDS011;75116;42.644;23.274;2024-03-22T12:29:29;3.95;;;3.00;;
84860;SDS011;75116;42.644;23.274;2024-03-22T12:31:57;4.55;;;2.00;;
84860;SDS011;75116;42.644;23.274;2024-03-22T12:34:22;2.25;;;1.67;;
84860;SDS011;75116;42.644;23.274;2024-03-22T12:36:48;3.85;;;2.28;;
84860;SDS011;75116;42.644;23.274;2024-03-22T12:39:14;3.50;;;1.75;;
84860;SDS011;75116;42.644;23.274;2024-03-22T12:41:39;5.72;;;2.53;;
84860;SDS011;75116;42.644;23.274;2024-03-22T12:44:05;4.35;;;2.40;;
84860;SDS011;75116;42.644;23.274;2024-03-22T12:46:31;2.55;;;1.70;;
84860;SDS011;75116;42.644;23.274;2024-03-22T12:48:56;2.20;;;1.27;;
84860;SDS011;75116;42.644;23.274;2024-03-22T12:51:22;3.25;;;1.80;;
84860;SDS011;75116;42.644;23.274;2024-03-22T12:53:47;5.13;;;2.00;;
84860;SDS011;75116;42.644;23.274;2024-03-22T12:56:13;4.18;;;1.95;;
84860;SDS011;75116;42.644;23.274;2024-03-22T12:58:38;3.38;;;2.05;;
84860;SDS011;75116;42.644;23.274;2024-03-22T13:01:08;2.33;;;1.45;;
84860;SDS011;75116;42.644;23.274;2024-03-22T13:03:36;3.63;;;2.30;;
84860;SDS011;75116;42.644;23.274;2024-03-22T13:06:02;3.35;;;1.80;;
84860;SDS011;75116;42.644;23.274;2024-03-22T13:08:30;10.30;;;2.05;;
84860;SDS011;75116;42.644;23.274;2024-03-22T13:10:56;3.00;;;1.20;;
84860;SDS011;75116;42.644;23.274;2024-03-22T13:13:22;4.03;;;2.30;;
84860;SDS011;75116;42.644;23.274;2024-03-22T13:15:47;3.30;;;2.20;;
84860;SDS011;75116;42.644;23.274;2024-03-22T13:18:13;4.30;;;1.80;;
84860;SDS011;75116;42.644;23.274;2024-03-22T13:20:38;4.18;;;2.33;;
84860;SDS011;75116;42.644;23.274;2024-03-22T13:23:04;7.28;;;1.95;;
84860;SDS011;75116;42.644;23.274;2024-03-22T13:25:30;2.88;;;1.42;;
84860;SDS011;75116;42.644;23.274;2024-03-22T13:27:56;4.38;;;1.63;;
84860;SDS011;75116;42.644;23.274;2024-03-22T13:30:21;3.25;;;2.13;;
84860;SDS011;75116;42.644;23.274;2024-03-22T13:32:48;4.55;;;2.47;;
84860;SDS011;75116;42.644;23.274;2024-03-22T13:35:13;3.47;;;1.90;;
84860;SDS011;75116;42.644;23.274;2024-03-22T13:37:40;2.25;;;1.50;;
84860;SDS011;75116;42.644;23.274;2024-03-22T13:40:06;5.68;;;2.13;;
84860;SDS011;75116;42.644;23.274;2024-03-22T13:42:32;4.55;;;2.95;;
84860;SDS011;75116;42.644;23.274;2024-03-22T13:44:58;6.28;;;2.55;;
84860;SDS011;75116;42.644;23.274;2024-03-22T13:47:24;3.85;;;2.58;;
84860;SDS011;75116;42.644;23.274;2024-03-22T13:49:51;5.47;;;2.53;;
84860;SDS011;75116;42.644;23.274;2024-03-22T13:52:17;4.15;;;1.58;;
84860;SDS011;75116;42.644;23.274;2024-03-22T13:54:43;5.28;;;2.28;;
84860;SDS011;75116;42.644;23.274;2024-03-22T13:57:08;6.13;;;2.45;;
84860;SDS011;75116;42.644;23.274;2024-03-22T13:59:34;3.40;;;2.00;;
84860;SDS011;75116;42.644;23.274;2024-03-22T14:02:01;3.13;;;2.10;;
84860;SDS011;75116;42.644;23.274;2024-03-22T14:04:26;4.88;;;2.63;;
84860;SDS011;75116;42.644;23.274;2024-03-22T14:06:52;6.20;;;2.88;;
84860;SDS011;75116;42.644;23.274;2024-03-22T14:09:18;3.55;;;2.45;;
84860;SDS011;75116;42.644;23.274;2024-03-22T14:11:43;3.45;;;2.40;;
84860;SDS011;75116;42.644;23.274;2024-03-22T14:14:10;5.32;;;2.35;;
84860;SDS011;75116;42.644;23.274;2024-03-22T14:16:37;4.00;;;1.67;;
84860;SDS011;75116;42.644;23.274;2024-03-22T14:19:03;3.33;;;2.30;;
84860;SDS011;75116;42.644;23.274;2024-03-22T14:21:28;3.53;;;1.88;;
84860;SDS011;75116;42.644;23.274;2024-03-22T14:23:54;5.43;;;2.38;;
84860;SDS011;75116;42.644;23.274;2024-03-22T14:26:20;5.70;;;2.03;;